Time;durP1;ratioP1;P1;durP2;ratioP2;P2;SDS_P1;SDS_P2;PMS_P1;PMS_P2;Temp;Humidity;BMP_temperature;BMP_pressure;BME280_temperature;BME280_humidity;BME280_pressure;Samples;Min_cycle;Max_cycle;Signal;HPM_P1;HPM_P2
2022/11/09 00:01:16;;;;;;;;;3.00;3.00;;;;;14.62;71.51;100154.66;5024450;28;45722;-59
2022/11/09 00:03:42;;;;;;;;;3.50;3.50;;;;;14.64;71.39;100158.81;5018972;28;45369;-55
2022/11/09 00:06:07;;;;;;;;;3.00;3.00;;;;;14.66;71.28;100147.50;5018585;28;45753;-55
2022/11/09 00:08:35;;;;;;;;;4.00;3.00;;;;;14.65;71.31;100156.88;5031322;28;45604;-54
2022/11/09 00:11:02;;;;;;;;;6.00;3.60;;;;;14.63;71.53;100156.31;5032166;28;46168;-56
2022/11/09 00:13:28;;;;;;;;;9.20;5.60;;;;;14.67;71.40;100163.00;5017349;28;45408;-55
2022/11/09 00:15:57;;;;;;;;;3.00;3.00;;;;;14.69;71.60;100176.56;5012188;28;45583;-56
2022/11/09 00:18:23;;;;;;;;;8.20;3.60;;;;;14.71;71.14;100174.38;5012633;28;45477;-54
2022/11/09 00:20:48;;;;;;;;;6.50;5.00;;;;;14.70;72.14;100176.31;5012184;28;45546;-56
2022/11/09 00:23:14;;;;;;;;;5.00;2.50;;;;;14.69;72.26;100176.56;5012206;28;45900;-55
2022/11/09 00:25:40;;;;;;;;;6.80;4.00;;;;;14.69;72.61;100174.63;5024928;28;45483;-57
2022/11/09 00:28:05;;;;;;;;;4.00;4.00;;;;;14.68;72.99;100172.13;5031025;28;45486;-57
2022/11/09 00:30:31;;;;;;;;;2.50;0.00;;;;;14.65;73.22;100156.88;5032281;28;46179;-55
2022/11/09 00:32:56;;;;;;;;;4.00;3.00;;;;;14.58;73.63;100118.41;5030831;28;45519;-55
2022/11/09 00:35:22;;;;;;;;;4.50;3.00;;;;;14.59;73.61;100117.31;5031963;28;45858;-53
2022/11/09 00:37:47;;;;;;;;;2.50;2.00;;;;;14.60;73.55;100118.16;5030933;28;45408;-56
2022/11/09 00:40:13;;;;;;;;;1.00;1.00;;;;;14.59;73.23;100119.25;5030746;28;45961;-57
2022/11/09 00:42:38;;;;;;;;;2.50;1.75;;;;;14.56;73.36;100130.81;5030862;28;45450;-58
2022/11/09 00:45:04;;;;;;;;;3.75;3.75;;;;;14.51;73.29;100123.25;5028722;28;45373;-56
2022/11/09 00:47:30;;;;;;;;;5.00;2.50;;;;;14.52;73.50;100127.72;5011694;28;45402;-55
2022/11/09 00:49:55;;;;;;;;;3.75;3.75;;;;;14.50;73.43;100127.13;5020189;28;45310;-56
2022/11/09 00:52:21;;;;;;;;;4.25;2.00;;;;;14.46;73.51;100123.22;5010408;28;45374;-57
2022/11/09 00:54:46;;;;;;;;;2.75;2.00;;;;;14.47;73.90;100122.13;5010638;28;45406;-60
2022/11/09 00:57:12;;;;;;;;;3.75;2.50;;;;;14.32;73.99;100098.72;5011950;28;45584;-57
2022/11/09 00:59:38;;;;;;;;;6.20;4.60;;;;;14.50;73.64;100129.88;5001052;28;45578;-58
2022/11/09 01:02:03;;;;;;;;;6.75;4.00;;;;;14.41;73.58;100115.66;5024437;28;45493;-55
2022/11/09 01:04:29;;;;;;;;;5.25;3.75;;;;;14.52;73.29;100126.88;5007825;28;45464;-54
2022/11/09 01:06:54;;;;;;;;;4.75;3.00;;;;;14.44;73.98;100128.97;5016314;28;45307;-57
2022/11/09 01:09:20;;;;;;;;;7.75;6.00;;;;;14.48;73.91;100146.69;5015498;28;46007;-57
2022/11/09 01:11:45;;;;;;;;;7.00;6.75;;;;;14.48;73.53;100154.16;4988793;28;45496;-55
2022/11/09 01:14:11;;;;;;;;;6.25;4.25;;;;;14.45;73.86;100152.72;5035802;28;45238;-55
2022/11/09 01:16:36;;;;;;;;;4.50;3.25;;;;;14.47;73.63;100155.25;5035614;28;45421;-54
2022/11/09 01:19:02;;;;;;;;;5.50;5.00;;;;;14.25;73.41;100120.09;5034650;28;45263;-56
2022/11/09 01:21:27;;;;;;;;;3.50;2.25;;;;;14.43;72.99;100146.63;5035172;28;45305;-54
2022/11/09 01:23:54;;;;;;;;;3.25;2.00;;;;;14.43;73.56;100152.16;5035714;28;45310;-53
2022/11/09 01:26:19;;;;;;;;;2.80;2.80;;;;;14.39;73.68;100153.75;5035595;28;45203;-55
2022/11/09 01:28:45;;;;;;;;;5.25;2.00;;;;;14.33;73.64;100161.13;5034851;28;46200;-53
2022/11/09 01:31:15;;;;;;;;;3.00;2.50;;;;;14.29;73.24;100164.63;5033884;28;46323;-54
2022/11/09 01:33:41;;;;;;;;;2.60;1.20;;;;;14.27;73.39;100170.41;5035172;28;45444;-53
2022/11/09 01:36:11;;;;;;;;;6.25;4.50;;;;;14.22;73.32;100179.44;5033955;28;45622;-56
2022/11/09 01:38:37;;;;;;;;;3.60;2.60;;;;;14.16;73.97;100172.16;5034964;28;46299;-53
2022/11/09 01:41:04;;;;;;;;;3.00;1.25;;;;;14.16;73.59;100188.72;5035316;28;45369;-54
2022/11/09 01:43:29;;;;;;;;;3.80;2.00;;;;;14.14;73.52;100193.63;5017204;28;45445;-51
2022/11/09 01:46:08;;;;;;;;;2.75;1.25;;;;;14.11;73.85;100202.41;5027997;28;45458;-56
2022/11/09 01:48:46;;;;;;;;;2.60;2.60;;;;;14.03;73.77;100189.84;5015171;28;46091;-55
2022/11/09 01:51:13;;;;;;;;;1.80;1.80;;;;;13.85;73.57;100177.13;4997832;28;45307;-59
2022/11/09 01:53:40;;;;;;;;;0.20;0.20;;;;;14.00;73.73;100198.63;5013500;28;45453;-54
2022/11/09 01:56:06;;;;;;;;;2.00;2.00;;;;;13.67;74.00;100147.84;5015251;28;45430;-55
2022/11/09 01:58:52;;;;;;;;;2.00;2.00;;;;;13.79;73.77;100173.44;5013499;28;46213;-54
2022/11/09 02:01:17;;;;;;;;;2.60;2.60;;;;;14.00;73.27;100204.16;5015109;28;45437;-58
2022/11/09 02:03:50;;;;;;;;;2.00;2.00;;;;;13.94;73.50;100199.63;5013524;28;45201;-55
2022/11/09 02:06:15;;;;;;;;;12.60;11.80;;;;;13.96;73.81;100201.06;4997787;28;45449;-56
2022/11/09 02:08:41;;;;;;;;;6.75;5.00;;;;;13.94;73.18;100214.25;5013279;28;46491;-54
2022/11/09 02:11:12;;;;;;;;;4.20;2.40;;;;;13.73;73.31;100168.06;4996811;28;45785;-56
2022/11/09 02:13:39;;;;;;;;;3.00;1.40;;;;;13.88;73.49;100193.16;5013468;28;45413;-56
2022/11/09 02:16:05;;;;;;;;;3.40;3.00;;;;;13.92;73.85;100210.91;4996955;28;45304;-55
2022/11/09 02:18:30;;;;;;;;;2.00;2.00;;;;;13.89;73.22;100214.16;5014722;28;46256;-55
2022/11/09 02:20:56;;;;;;;;;3.25;2.00;;;;;13.56;73.59;100168.88;5013742;28;45261;-56
2022/11/09 02:23:23;;;;;;;;;3.75;3.00;;;;;13.85;73.69;100203.84;5013129;28;45344;-55
2022/11/09 02:25:54;;;;;;;;;3.00;1.00;;;;;13.65;73.64;100178.41;5013424;28;45362;-53
2022/11/09 02:28:20;;;;;;;;;2.60;1.20;;;;;13.72;73.31;100182.94;4997298;28;46101;-56
2022/11/09 02:30:47;;;;;;;;;2.25;2.00;;;;;13.82;73.43;100205.19;5015222;28;45405;-54
2022/11/09 02:33:13;;;;;;;;;2.80;1.00;;;;;13.80;73.30;100196.31;5014744;28;45790;-52
2022/11/09 02:35:38;;;;;;;;;2.50;2.50;;;;;13.82;73.37;100189.47;5015073;28;45401;-58
2022/11/09 02:38:07;;;;;;;;;0.75;0.00;;;;;13.81;72.77;100192.47;5013193;28;47435;-55
2022/11/09 02:40:35;;;;;;;;;1.20;1.20;;;;;13.78;72.74;100204.84;5013688;28;45702;-56
2022/11/09 02:43:00;;;;;;;;;4.00;1.80;;;;;13.79;72.90;100208.44;4997047;28;45361;-57
2022/11/09 02:45:26;;;;;;;;;1.00;1.00;;;;;13.78;72.40;100215.06;5014644;28;45817;-54
2022/11/09 02:47:51;;;;;;;;;2.75;1.50;;;;;13.74;72.63;100211.09;5033425;28;47364;-55
2022/11/09 02:50:17;;;;;;;;;1.00;1.00;;;;;13.72;72.22;100205.81;5034348;28;45373;-54
2022/11/09 02:52:43;;;;;;;;;2.50;1.25;;;;;13.63;72.34;100197.13;5034671;28;45260;-51
2022/11/09 02:55:08;;;;;;;;;4.25;1.75;;;;;13.45;72.76;100172.47;5034775;28;45377;-57
2022/11/09 02:57:34;;;;;;;;;2.25;2.25;;;;;13.66;72.34;100223.38;5034095;28;46551;-54
2022/11/09 02:59:59;;;;;;;;;1.00;1.00;;;;;13.64;72.44;100220.84;5033564;28;45448;-58
2022/11/09 03:02:25;;;;;;;;;2.25;1.50;;;;;13.63;72.20;100229.38;4972422;28;45409;-50
2022/11/09 03:04:50;;;;;;;;;3.25;2.00;;;;;13.50;71.89;100209.28;4997441;28;45329;-55
2022/11/09 03:07:16;;;;;;;;;2.50;2.00;;;;;13.61;72.04;100235.13;4997914;28;46247;-55
2022/11/09 03:09:41;;;;;;;;;1.00;1.00;;;;;13.57;72.10;100230.34;4997818;28;45252;-55
2022/11/09 03:14:51;;;;;;;;;0.40;0.40;;;;;13.49;71.50;100235.16;4998464;28;45211;-57
2022/11/09 03:17:17;;;;;;;;;0.75;0.75;;;;;13.45;71.65;100236.69;4997946;28;46258;-54
2022/11/09 03:19:43;;;;;;;;;1.00;1.00;;;;;13.10;71.63;100177.00;4997725;28;45209;-55
2022/11/09 03:22:09;;;;;;;;;3.00;0.40;;;;;13.29;71.74;100200.56;5013128;28;45517;-55
2022/11/09 03:24:34;;;;;;;;;0.25;0.25;;;;;13.37;71.71;100221.38;4997838;28;45326;-57
2022/11/09 03:27:00;;;;;;;;;0.00;0.00;;;;;13.46;71.41;100229.31;4997173;28;46558;-53
2022/11/09 03:29:25;;;;;;;;;0.00;0.00;;;;;13.48;71.51;100235.41;4997332;28;45295;-55
2022/11/09 03:31:50;;;;;;;;;1.00;1.00;;;;;13.45;71.33;100235.88;4997671;28;45240;-54
2022/11/09 03:34:16;;;;;;;;;0.25;0.25;;;;;13.47;71.18;100236.50;4997661;28;45540;-55
2022/11/09 03:36:41;;;;;;;;;1.75;0.00;;;;;13.47;70.83;100236.50;4997149;28;46103;-55
2022/11/09 03:39:07;;;;;;;;;1.25;1.00;;;;;13.45;71.15;100242.22;4997384;28;45737;-56
2022/11/09 03:41:33;;;;;;;;;0.00;0.00;;;;;13.33;71.07;100231.22;4997268;28;45437;-56
2022/11/09 03:43:59;;;;;;;;;0.00;0.00;;;;;13.39;71.12;100244.03;4997451;28;45337;-55
2022/11/09 03:46:24;;;;;;;;;1.00;0.00;;;;;13.38;71.26;100241.50;5010719;28;46124;-53
2022/11/09 03:48:50;;;;;;;;;1.75;0.00;;;;;13.38;71.39;100249.78;5036756;28;45376;-54
2022/11/09 03:51:15;;;;;;;;;0.00;0.00;;;;;13.36;71.11;100254.69;5037092;28;45361;-57
2022/11/09 03:53:41;;;;;;;;;1.50;1.00;;;;;13.36;71.48;100249.19;5036703;28;45489;-55
2022/11/09 03:56:06;;;;;;;;;0.00;0.00;;;;;13.36;71.60;100250.03;5036848;28;46485;-52
2022/11/09 03:58:32;;;;;;;;;1.00;0.00;;;;;13.36;71.49;100247.28;5037081;28;45384;-54
2022/11/09 04:00:57;;;;;;;;;0.50;0.25;;;;;13.12;71.36;100222.50;5036600;28;45278;-56
2022/11/09 04:03:23;;;;;;;;;2.00;1.00;;;;;13.28;71.36;100254.00;5036915;28;45631;-54
2022/11/09 04:05:48;;;;;;;;;0.00;0.00;;;;;13.26;71.65;100258.06;5036523;28;46007;-54
2022/11/09 04:08:14;;;;;;;;;0.00;0.00;;;;;13.24;71.46;100257.50;5036589;28;45369;-57
2022/11/09 04:10:39;;;;;;;;;0.00;0.00;;;;;13.24;71.45;100255.56;5036646;28;45433;-52
2022/11/09 04:13:05;;;;;;;;;1.00;0.00;;;;;13.04;71.45;100228.41;5036673;28;45606;-54
2022/11/09 04:15:30;;;;;;;;;0.00;0.00;;;;;13.23;70.68;100256.63;5036453;28;46815;-54
2022/11/09 04:17:57;;;;;;;;;2.50;0.00;;;;;13.03;71.46;100226.72;5036221;28;45495;-53
2022/11/09 04:20:22;;;;;;;;;2.80;0.00;;;;;13.24;71.44;100274.03;5035427;28;45516;-57
2022/11/09 04:22:55;;;;;;;;;0.00;0.00;;;;;13.18;71.39;100269.47;5036353;28;45626;-54
2022/11/09 04:25:21;;;;;;;;;0.00;0.00;;;;;13.17;71.19;100265.88;5036537;28;46262;-57
2022/11/09 04:27:46;;;;;;;;;0.00;0.00;;;;;12.93;71.50;100238.34;5034739;28;45495;-56
2022/11/09 04:30:12;;;;;;;;;1.50;0.00;;;;;12.74;71.90;100207.31;5036353;28;45493;-55
2022/11/09 04:32:38;;;;;;;;;0.75;0.25;;;;;13.10;71.77;100282.53;5036555;28;45387;-55
2022/11/09 04:35:03;;;;;;;;;0.50;0.00;;;;;13.04;72.17;100274.38;5036131;28;45565;-55
2022/11/09 04:37:29;;;;;;;;;0.00;0.00;;;;;13.02;72.18;100282.88;5036433;28;45280;-57
2022/11/09 04:39:54;;;;;;;;;0.00;0.00;;;;;13.04;71.75;100290.91;5036607;28;45307;-56
2022/11/09 04:42:20;;;;;;;;;0.00;0.00;;;;;12.99;72.07;100292.47;5036360;28;45234;-55
2022/11/09 04:44:45;;;;;;;;;0.00;0.00;;;;;12.99;72.33;100297.13;5036313;28;45348;-54
2022/11/09 04:47:11;;;;;;;;;0.25;0.00;;;;;13.01;72.24;100295.81;5024552;28;45380;-54
2022/11/09 04:49:36;;;;;;;;;0.00;0.00;;;;;12.99;72.51;100300.75;5016285;28;45325;-55
2022/11/09 04:52:01;;;;;;;;;0.25;0.00;;;;;12.74;71.99;100251.38;5016473;28;45357;-54
2022/11/09 04:54:27;;;;;;;;;0.00;0.00;;;;;12.99;71.99;100297.13;4973777;28;47592;-53
2022/11/09 04:56:53;;;;;;;;;1.00;1.00;;;;;13.00;72.09;100307.94;4993783;28;46070;-57
2022/11/09 04:59:18;;;;;;;;;0.00;0.00;;;;;12.98;72.20;100300.97;4992374;28;45462;-52
2022/11/09 05:01:44;;;;;;;;;1.00;0.00;;;;;13.00;71.86;100307.94;4995871;28;45567;-52
2022/11/09 05:04:09;;;;;;;;;0.75;0.00;;;;;12.99;72.26;100302.66;4996063;28;45330;-55
2022/11/09 05:06:35;;;;;;;;;0.75;0.50;;;;;12.98;71.99;100296.28;4996237;28;45330;-55
2022/11/09 05:09:05;;;;;;;;;2.50;0.00;;;;;12.34;71.95;100217.13;4995139;28;45852;-57
2022/11/09 05:11:31;;;;;;;;;0.00;0.00;;;;;12.19;72.08;100179.03;4996606;28;45315;-54
2022/11/09 05:13:56;;;;;;;;;0.00;0.00;;;;;12.96;72.16;100308.66;4995823;28;46294;-55
2022/11/09 05:16:22;;;;;;;;;1.25;1.25;;;;;12.97;72.11;100305.63;4994362;28;45444;-56
2022/11/09 05:18:48;;;;;;;;;2.25;1.25;;;;;12.94;72.45;100299.78;4996197;28;45377;-56
2022/11/09 05:21:13;;;;;;;;;0.25;0.25;;;;;12.90;72.50;100295.84;4996314;28;45311;-50
2022/11/09 05:26:25;;;;;;;;;0.00;0.00;;;;;12.95;72.24;100301.44;4994782;28;45407;-53
2022/11/09 05:28:51;;;;;;;;;0.20;0.00;;;;;12.93;72.18;100289.84;4995876;28;45875;-52
2022/11/09 05:31:17;;;;;;;;;2.40;0.80;;;;;12.99;72.41;100297.13;4995275;28;45571;-54
2022/11/09 05:33:42;;;;;;;;;0.00;0.00;;;;;12.96;71.78;100301.22;4995348;28;45405;-51
2022/11/09 05:36:08;;;;;;;;;0.00;0.00;;;;;13.02;72.04;100307.66;4994530;28;45372;-56
2022/11/09 05:38:33;;;;;;;;;2.50;1.25;;;;;12.78;72.61;100273.78;4995545;28;45462;-54
2022/11/09 05:40:59;;;;;;;;;0.50;0.50;;;;;12.99;72.47;100313.66;4995736;28;45287;-54
2022/11/09 05:43:24;;;;;;;;;1.50;1.50;;;;;13.01;72.65;100317.00;4995111;28;45949;-55
2022/11/09 05:45:50;;;;;;;;;0.75;0.75;;;;;12.85;72.68;100286.34;4994533;28;45404;-55
2022/11/09 05:48:16;;;;;;;;;2.75;1.50;;;;;12.48;72.74;100231.47;5033107;28;45313;-53
2022/11/09 05:50:42;;;;;;;;;2.00;1.00;;;;;13.05;72.68;100320.97;5034105;28;45439;-54
2022/11/09 05:53:07;;;;;;;;;2.00;0.25;;;;;13.06;72.39;100319.03;5033711;28;47548;-53
2022/11/09 05:55:33;;;;;;;;;0.00;0.00;;;;;13.04;72.59;100322.06;5033424;28;45199;-57
2022/11/09 05:57:58;;;;;;;;;4.25;1.75;;;;;12.78;73.10;100284.78;5033861;28;45681;-54
2022/11/09 06:00:24;;;;;;;;;1.00;1.00;;;;;12.99;73.21;100324.69;5034942;28;45516;-52
2022/11/09 06:02:50;;;;;;;;;2.00;1.00;;;;;12.55;72.94;100259.72;5033549;28;46227;-54
2022/11/09 06:05:15;;;;;;;;;4.50;1.00;;;;;13.03;73.15;100336.91;5034778;28;45372;-55
2022/11/09 06:07:41;;;;;;;;;2.00;2.00;;;;;13.02;73.14;100338.81;4998700;28;45429;-54
2022/11/09 06:10:07;;;;;;;;;2.75;1.00;;;;;12.96;73.25;100328.75;5015152;28;45298;-53
2022/11/09 06:12:33;;;;;;;;;1.00;1.00;;;;;13.00;73.57;100329.13;5014671;28;45488;-59
2022/11/09 06:14:58;;;;;;;;;2.25;2.00;;;;;13.01;73.54;100326.13;5014602;28;45691;-56
2022/11/09 06:17:24;;;;;;;;;3.25;3.00;;;;;12.98;73.52;100323.00;5015058;28;45340;-55
2022/11/09 06:19:49;;;;;;;;;1.50;1.00;;;;;12.99;73.90;100332.94;5013456;28;45444;-57
2022/11/09 06:22:15;;;;;;;;;1.50;1.50;;;;;12.94;73.91;100335.56;5014833;28;46282;-52
2022/11/09 06:24:40;;;;;;;;;0.50;0.00;;;;;12.74;74.13;100301.78;5014418;28;45328;-56
2022/11/09 06:27:05;;;;;;;;;2.00;2.00;;;;;12.95;74.09;100345.50;5015140;28;45292;-53
2022/11/09 06:29:31;;;;;;;;;2.00;2.00;;;;;12.94;74.35;100349.34;5014967;28;45604;-55
2022/11/09 06:31:56;;;;;;;;;2.00;2.00;;;;;12.68;74.47;100308.25;5014617;28;45220;-52
2022/11/09 06:34:22;;;;;;;;;2.50;1.00;;;;;12.74;74.53;100317.47;5013324;28;45370;-55
2022/11/09 06:36:47;;;;;;;;;1.75;1.00;;;;;12.97;74.37;100352.47;5014698;28;45243;-52
2022/11/09 06:39:13;;;;;;;;;3.25;2.00;;;;;12.87;74.28;100350.28;5016587;28;45551;-57
2022/11/09 06:41:38;;;;;;;;;2.00;2.00;;;;;12.92;74.29;100363.34;5018079;28;45452;-54
2022/11/09 06:44:04;;;;;;;;;3.00;1.50;;;;;12.91;74.82;100366.38;5018230;28;45331;-54
2022/11/09 06:46:31;;;;;;;;;3.25;2.00;;;;;12.91;75.01;100375.44;5020790;28;45421;-55
2022/11/09 06:48:56;;;;;;;;;3.00;3.00;;;;;12.90;74.64;100376.53;5036529;28;45351;-53
2022/11/09 06:51:22;;;;;;;;;2.50;1.75;;;;;12.92;74.56;100379.06;5038232;28;46282;-57
2022/11/09 06:53:48;;;;;;;;;2.25;2.25;;;;;12.87;75.10;100377.84;5037820;28;45385;-50
2022/11/09 06:56:13;;;;;;;;;2.50;2.50;;;;;12.94;74.72;100382.41;5038321;28;45349;-55
2022/11/09 06:58:38;;;;;;;;;4.75;3.75;;;;;12.94;74.93;100394.28;5038018;28;45612;-55
2022/11/09 07:01:11;;;;;;;;;3.25;2.25;;;;;12.95;74.99;100387.69;5037869;28;45462;-53
2022/11/09 07:03:37;;;;;;;;;4.60;2.80;;;;;12.97;74.63;100388.28;5037609;28;45318;-55
2022/11/09 07:06:06;;;;;;;;;3.00;2.00;;;;;12.96;75.23;100383.03;5037723;28;45839;-56
2022/11/09 07:08:32;;;;;;;;;5.00;4.20;;;;;12.99;75.04;100390.81;5038105;28;45646;-54
2022/11/09 07:11:04;;;;;;;;;4.25;3.50;;;;;12.98;75.17;100395.47;5037100;28;45347;-55
2022/11/09 07:13:30;;;;;;;;;3.80;3.20;;;;;12.93;75.11;100391.75;5036687;28;46024;-55
2022/11/09 07:15:55;;;;;;;;;4.25;2.75;;;;;13.01;75.22;100399.66;5035894;28;45464;-56
2022/11/09 07:18:21;;;;;;;;;7.00;4.00;;;;;13.02;75.25;100406.84;5038050;28;45345;-52
2022/11/09 07:20:46;;;;;;;;;1.75;1.75;;;;;13.05;74.98;100411.91;5036280;28;45933;-55
2022/11/09 07:23:12;;;;;;;;;6.00;3.75;;;;;13.09;75.07;100413.13;5035954;28;45402;-56
2022/11/09 07:25:37;;;;;;;;;6.25;4.75;;;;;13.04;75.77;100410.22;5037145;28;45365;-56
2022/11/09 07:28:04;;;;;;;;;3.00;3.00;;;;;13.13;75.14;100422.56;5036199;28;45562;-53
2022/11/09 07:30:29;;;;;;;;;4.80;4.40;;;;;12.82;75.37;100376.88;5036997;28;45956;-53
2022/11/09 07:32:58;;;;;;;;;4.75;3.25;;;;;13.03;75.03;100408.53;5035869;28;45975;-55
2022/11/09 07:35:23;;;;;;;;;5.60;3.00;;;;;13.17;75.12;100431.19;5036888;28;45448;-54
2022/11/09 07:37:49;;;;;;;;;11.25;6.25;;;;;13.17;75.26;100435.88;5036557;28;45270;-53
2022/11/09 07:40:14;;;;;;;;;14.00;7.50;;;;;13.14;75.47;100432.50;5036560;28;46531;-54
2022/11/09 07:42:40;;;;;;;;;12.00;11.00;;;;;13.16;75.61;100426.75;5035633;28;46072;-53
2022/11/09 07:45:06;;;;;;;;;10.25;8.25;;;;;13.14;75.29;100429.75;5037050;28;45354;-56
2022/11/09 07:47:31;;;;;;;;;2.75;2.50;;;;;13.16;75.05;100429.53;5027765;28;45263;-54
2022/11/09 07:49:57;;;;;;;;;11.25;2.75;;;;;13.10;75.36;100420.28;5015890;28;46596;-51
2022/11/09 07:52:22;;;;;;;;;5.50;5.00;;;;;13.14;75.39;100432.50;5016907;28;45271;-54
2022/11/09 07:54:48;;;;;;;;;7.25;3.00;;;;;13.19;75.48;100433.72;4990970;28;45366;-54
2022/11/09 07:57:13;;;;;;;;;5.50;3.50;;;;;13.22;75.72;100438.75;5013579;28;45360;-55
2022/11/09 07:59:39;;;;;;;;;3.75;2.00;;;;;13.23;75.49;100441.28;5014088;28;46051;-56
2022/11/09 08:02:04;;;;;;;;;3.50;3.50;;;;;13.01;75.33;100399.66;5015757;28;45436;-53
2022/11/09 08:04:30;;;;;;;;;4.00;4.00;;;;;13.33;75.08;100450.88;5016662;28;45827;-57
2022/11/09 08:06:55;;;;;;;;;5.50;2.75;;;;;13.00;75.53;100409.84;5016997;28;45430;-57
2022/11/09 08:09:21;;;;;;;;;9.50;6.00;;;;;13.38;74.90;100451.84;5016647;28;46278;-52
2022/11/09 08:11:46;;;;;;;;;7.25;5.75;;;;;13.11;75.26;100415.59;5015296;28;45408;-55
2022/11/09 08:14:12;;;;;;;;;4.50;3.00;;;;;13.33;75.48;100451.72;5015597;28;45422;-54
2022/11/09 08:16:37;;;;;;;;;6.50;5.00;;;;;13.23;75.39;100445.97;5016434;28;45372;-54
2022/11/09 08:19:03;;;;;;;;;5.00;5.00;;;;;13.39;75.27;100467.31;5015184;28;48697;-54
2022/11/09 08:21:28;;;;;;;;;5.00;4.00;;;;;13.42;74.96;100471.50;5016186;28;45477;-54
2022/11/09 08:23:54;;;;;;;;;6.00;3.75;;;;;13.38;75.18;100465.63;5016441;28;45373;-53
2022/11/09 08:26:19;;;;;;;;;6.25;4.50;;;;;13.45;75.22;100479.28;5016399;28;45383;-56
2022/11/09 08:28:45;;;;;;;;;5.75;4.25;;;;;13.47;75.16;100476.31;4998576;28;45669;-54
2022/11/09 08:31:10;;;;;;;;;5.50;5.50;;;;;13.50;75.25;100468.41;5015232;28;46188;-52
2022/11/09 08:33:37;;;;;;;;;5.75;4.50;;;;;13.27;74.74;100425.94;5016405;28;45205;-54
2022/11/09 08:36:10;;;;;;;;;2.80;2.00;;;;;13.59;74.55;100479.09;5016688;28;45360;-55
2022/11/09 08:38:36;;;;;;;;;4.20;3.20;;;;;13.57;74.58;100476.59;5015891;28;45425;-51
2022/11/09 08:41:01;;;;;;;;;4.00;3.50;;;;;13.59;74.68;100476.34;5015034;28;45352;-51
2022/11/09 08:43:27;;;;;;;;;4.75;4.00;;;;;13.60;74.37;100470.59;5016457;28;45197;-54
2022/11/09 08:45:52;;;;;;;;;8.75;6.00;;;;;13.67;74.30;100490.59;5016536;28;45450;-53
2022/11/09 08:48:18;;;;;;;;;3.00;2.00;;;;;13.72;74.48;100498.16;5029812;28;45464;-52
2022/11/09 08:50:43;;;;;;;;;4.25;3.75;;;;;13.71;74.43;100485.44;5036061;28;45833;-53
2022/11/09 08:53:09;;;;;;;;;2.75;2.75;;;;;13.72;74.20;100492.63;5036579;28;45289;-60
2022/11/09 08:55:34;;;;;;;;;4.75;3.25;;;;;13.79;73.82;100498.06;5021743;28;45440;-59
2022/11/09 08:58:00;;;;;;;;;3.50;3.50;;;;;13.83;74.09;100502.84;5009486;28;48375;-60
2022/11/09 09:00:26;;;;;;;;;5.00;5.00;;;;;13.90;73.55;100504.66;4996513;28;45422;-60
2022/11/09 09:02:52;;;;;;;;;4.50;4.00;;;;;13.94;73.36;100514.13;5013811;28;45475;-58
2022/11/09 09:05:17;;;;;;;;;4.50;4.00;;;;;13.77;73.19;100467.13;5015993;28;45462;-57
2022/11/09 09:07:43;;;;;;;;;7.25;4.50;;;;;14.07;73.18;100518.56;5015503;28;45460;-58
2022/11/09 09:10:08;;;;;;;;;5.50;4.75;;;;;13.94;72.59;100486.53;5015903;28;45417;-55
2022/11/09 09:12:34;;;;;;;;;4.50;3.25;;;;;14.14;72.56;100504.66;5016026;28;45365;-60
2022/11/09 09:15:00;;;;;;;;;2.25;2.00;;;;;14.24;72.04;100524.19;5016135;28;45386;-56
2022/11/09 09:17:25;;;;;;;;;5.75;3.75;;;;;14.28;72.55;100521.78;5016019;28;46318;-58
2022/11/09 09:19:51;;;;;;;;;3.75;3.00;;;;;14.12;71.88;100496.59;5015625;28;45174;-58
2022/11/09 09:22:16;;;;;;;;;6.50;3.75;;;;;14.39;71.61;100529.19;5014589;28;45233;-56
2022/11/09 09:24:42;;;;;;;;;5.00;3.00;;;;;14.40;71.98;100524.53;5015845;28;45664;-58
2022/11/09 09:27:07;;;;;;;;;2.50;2.50;;;;;14.27;71.47;100500.78;5015371;28;45506;-55
2022/11/09 09:29:33;;;;;;;;;2.75;2.75;;;;;14.49;71.07;100523.91;5015755;28;45386;-54
2022/11/09 09:31:59;;;;;;;;;7.00;4.75;;;;;14.53;71.15;100535.31;5015110;28;45390;-55
2022/11/09 09:34:24;;;;;;;;;4.50;4.00;;;;;14.39;70.63;100509.88;5015993;28;45527;-55
2022/11/09 09:36:53;;;;;;;;;3.40;3.40;;;;;14.55;70.69;100541.41;5015527;28;46058;-56
2022/11/09 09:39:19;;;;;;;;;12.20;3.40;;;;;14.59;70.57;100547.28;5015585;28;45566;-57
2022/11/09 09:41:50;;;;;;;;;4.75;2.75;;;;;14.58;70.37;100537.34;5015680;28;45460;-54
2022/11/09 09:44:21;;;;;;;;;3.20;3.20;;;;;14.69;70.05;100552.19;5015334;28;45404;-55
2022/11/09 09:47:13;;;;;;;;;4.80;2.80;;;;;14.74;69.91;100557.88;5015334;28;45381;-57
2022/11/09 09:49:51;;;;;;;;;7.20;4.00;;;;;14.53;69.44;100526.19;5034207;28;45461;-53
2022/11/09 09:52:24;;;;;;;;;2.60;2.00;;;;;14.73;69.76;100568.03;5018155;28;45440;-52
2022/11/09 09:55:27;;;;;;;;;2.20;2.00;;;;;14.61;69.44;100534.06;5035544;28;45500;-57
2022/11/09 09:57:53;;;;;;;;;3.20;1.20;;;;;14.85;69.46;100569.97;4980288;28;45326;-56
2022/11/09 10:00:24;;;;;;;;;1.80;1.80;;;;;14.90;69.08;100567.31;4995077;28;45384;-60
2022/11/09 10:02:50;;;;;;;;;3.80;3.80;;;;;14.89;68.74;100555.41;4995857;28;45354;-58
2022/11/09 10:05:16;;;;;;;;;2.00;1.80;;;;;15.00;68.68;100564.72;5010395;28;45467;-58
2022/11/09 10:07:45;;;;;;;;;2.75;2.00;;;;;15.05;67.87;100572.28;4995242;28;45561;-58
2022/11/09 10:10:30;;;;;;;;;3.60;3.00;;;;;15.11;67.86;100579.59;4995184;28;45210;-57
2022/11/09 10:13:11;;;;;;;;;3.60;2.00;;;;;15.17;67.99;100586.06;4993523;28;45473;-58
2022/11/09 10:15:51;;;;;;;;;5.00;1.00;;;;;15.24;67.22;100583.16;4995161;28;45456;-57
2022/11/09 10:18:31;;;;;;;;;1.80;1.40;;;;;15.29;67.36;100584.09;4994791;28;46651;-57
2022/11/09 10:20:57;;;;;;;;;4.00;4.00;;;;;14.68;67.04;100484.22;4994653;28;45368;-58
2022/11/09 10:23:52;;;;;;;;;2.50;0.75;;;;;15.40;66.01;100600.88;4993546;28;45939;-58
2022/11/09 10:26:25;;;;;;;;;3.00;1.80;;;;;15.38;66.38;100580.94;5007510;28;45546;-57
2022/11/09 10:28:57;;;;;;;;;1.60;1.60;;;;;15.90;65.49;100599.25;5010023;28;47382;-55
2022/11/09 10:31:23;;;;;;;;;4.40;3.40;;;;;16.31;64.05;100599.09;4993454;28;45359;-57
2022/11/09 10:34:09;;;;;;;;;2.50;1.25;;;;;16.37;63.82;100614.69;4995424;28;45401;-55
2022/11/09 10:36:57;;;;;;;;;2.20;2.00;;;;;16.15;64.04;100608.25;4977209;28;45514;-54
2022/11/09 10:39:24;;;;;;;;;3.40;2.60;;;;;15.98;64.62;100615.50;5010539;28;45744;-55
2022/11/09 10:41:49;;;;;;;;;3.20;2.20;;;;;15.94;64.72;100608.78;4994754;28;45402;-57
2022/11/09 10:44:16;;;;;;;;;0.75;0.75;;;;;15.62;64.36;100566.97;4999181;28;45500;-54
2022/11/09 10:47:05;;;;;;;;;1.60;1.00;;;;;15.93;63.96;100612.63;5018145;28;45746;-55
2022/11/09 10:49:32;;;;;;;;;2.40;1.80;;;;;15.84;62.47;100603.03;5015790;28;45710;-56
2022/11/09 10:51:58;;;;;;;;;3.40;2.60;;;;;15.91;63.22;100603.69;5011954;28;45439;-55
2022/11/09 10:54:30;;;;;;;;;1.00;1.00;;;;;15.97;63.21;100610.19;5010108;28;45561;-56
2022/11/09 10:57:16;;;;;;;;;1.60;1.60;;;;;16.06;63.37;100613.38;5012416;28;45989;-54
2022/11/09 10:59:56;;;;;;;;;3.20;1.60;;;;;16.14;62.62;100610.19;4961664;28;51004;-55
2022/11/09 11:02:25;;;;;;;;;3.40;2.00;;;;;16.11;62.52;100606.00;4972299;28;45418;-59
2022/11/09 11:05:05;;;;;;;;;0.40;0.40;;;;;16.09;62.19;100576.88;4972809;28;45953;-57
2022/11/09 11:07:32;;;;;;;;;3.40;2.00;;;;;16.56;61.33;100619.97;4992424;28;45436;-57
2022/11/09 11:10:18;;;;;;;;;2.40;2.00;;;;;16.80;60.60;100625.25;4975941;28;45536;-56
2022/11/09 11:13:04;;;;;;;;;2.20;1.20;;;;;17.58;59.54;100632.59;4971230;28;45390;-59
2022/11/09 11:15:38;;;;;;;;;3.00;1.80;;;;;17.90;57.02;100619.81;4966887;28;45433;-57
2022/11/09 11:18:12;;;;;;;;;3.00;1.40;;;;;17.36;57.38;100627.06;4924458;28;45513;-61
2022/11/09 11:20:38;;;;;;;;;5.00;2.00;;;;;17.15;58.49;100632.41;4934440;28;46859;-60
2022/11/09 11:23:12;;;;;;;;;1.40;1.40;;;;;16.38;59.20;100558.22;4949839;28;45427;-60
2022/11/09 11:26:00;;;;;;;;;5.20;3.80;;;;;16.61;59.85;100616.41;4966068;28;45415;-61
2022/11/09 11:28:44;;;;;;;;;0.60;0.60;;;;;16.19;58.75;100587.28;4973151;28;45740;-56
2022/11/09 11:31:13;;;;;;;;;1.20;1.00;;;;;16.97;58.79;100630.72;4958299;28;46573;-57